Time;durP1;ratioP1;P1;durP2;ratioP2;P2;SDS_P1;SDS_P2;PMS_P1;PMS_P2;Temp;Humidity;BMP_temperature;BMP_pressure;BME280_temperature;BME280_humidity;BME280_pressure;Samples;Min_cycle;Max_cycle;Signal;HPM_P1;HPM_P2
2023/04/23 00:02:12;;;;;;;30.58;20.40;;;9.10;99.90;;;;;;5045901;28;20055;-75
2023/04/23 00:04:39;;;;;;;29.42;20.23;;;9.10;99.90;;;;;;5049019;28;20041;-74
2023/04/23 00:07:05;;;;;;;28.10;19.55;;;9.10;99.90;;;;;;5048332;28;20079;-75
2023/04/23 00:09:31;;;;;;;29.95;20.08;;;9.10;99.90;;;;;;5060909;28;20056;-75
2023/04/23 00:12:01;;;;;;;31.33;21.45;;;9.10;99.90;;;;;;5047755;28;20144;-75
2023/04/23 00:14:27;;;;;;;32.60;22.98;;;9.00;99.90;;;;;;5045028;28;20036;-75
2023/04/23 00:16:53;;;;;;;31.55;21.38;;;9.00;99.90;;;;;;5058804;28;20120;-75
2023/04/23 00:19:19;;;;;;;35.58;23.60;;;9.00;99.90;;;;;;5048723;28;20454;-75
2023/04/23 00:21:45;;;;;;;34.17;23.65;;;9.00;99.90;;;;;;5031540;28;20463;-75
2023/04/23 00:24:11;;;;;;;39.55;24.80;;;9.00;99.90;;;;;;5028963;28;20045;-75
2023/04/23 00:26:36;;;;;;;37.85;25.15;;;9.00;99.90;;;;;;5032950;28;20075;-75
2023/04/23 00:29:02;;;;;;;37.58;24.65;;;9.00;99.90;;;;;;5040322;28;20469;-75
2023/04/23 00:31:28;;;;;;;39.60;25.25;;;9.00;99.90;;;;;;5025856;28;20048;-75
2023/04/23 00:33:54;;;;;;;49.92;26.17;;;9.00;99.90;;;;;;5051322;28;20033;-75
2023/04/23 00:36:20;;;;;;;39.95;25.33;;;9.00;99.90;;;;;;5055090;28;20141;-75
2023/04/23 00:38:46;;;;;;;36.97;25.02;;;9.00;99.90;;;;;;5047620;28;20053;-75
2023/04/23 00:41:13;;;;;;;39.53;25.33;;;8.90;99.90;;;;;;5029093;28;20383;-75
2023/04/23 00:43:39;;;;;;;39.25;24.92;;;8.90;99.90;;;;;;5049812;28;20073;-75
2023/04/23 00:46:05;;;;;;;36.45;24.65;;;8.90;99.90;;;;;;5046542;28;20426;-75
2023/04/23 00:48:33;;;;;;;38.58;25.13;;;8.90;99.90;;;;;;5056419;28;20057;-75
2023/04/23 00:51:03;;;;;;;37.97;24.60;;;8.90;99.90;;;;;;5041811;28;20053;-75
2023/04/23 00:53:29;;;;;;;36.17;23.40;;;8.90;99.90;;;;;;5042719;28;20080;-75
2023/04/23 00:55:55;;;;;;;38.58;24.48;;;8.90;99.90;;;;;;5056073;28;20052;-75
2023/04/23 00:58:22;;;;;;;38.30;24.88;;;9.10;99.90;;;;;;5069352;28;20041;-75
2023/04/23 01:00:50;;;;;;;39.80;24.48;;;8.90;99.90;;;;;;5059172;28;20041;-75
2023/04/23 01:03:17;;;;;;;40.05;24.48;;;8.80;99.90;;;;;;5060328;28;20045;-75
2023/04/23 01:05:43;;;;;;;36.08;23.70;;;8.80;99.90;;;;;;5034417;28;20124;-75
2023/04/23 01:08:15;;;;;;;43.05;25.52;;;8.80;99.90;;;;;;5056285;28;20045;-74
2023/04/23 01:10:42;;;;;;;37.97;24.73;;;8.80;99.90;;;;;;5042039;28;20036;-75
2023/04/23 01:13:08;;;;;;;37.20;22.90;;;8.80;99.90;;;;;;5058255;28;20593;-75
2023/04/23 01:15:34;;;;;;;36.38;23.08;;;8.80;99.90;;;;;;5050327;28;20275;-75
2023/04/23 01:18:00;;;;;;;36.22;22.58;;;8.80;99.90;;;;;;5056297;28;20166;-75
2023/04/23 01:20:26;;;;;;;36.58;23.48;;;8.80;99.90;;;;;;5056532;28;20045;-75
2023/04/23 01:22:52;;;;;;;38.60;23.92;;;8.80;99.90;;;;;;5053112;28;20051;-75
2023/04/23 01:25:18;;;;;;;36.60;23.27;;;8.80;99.90;;;;;;5050481;28;20041;-75
2023/04/23 01:27:44;;;;;;;36.05;22.58;;;8.70;99.90;;;;;;5051903;28;20044;-75
2023/04/23 01:30:10;;;;;;;34.63;22.45;;;8.70;99.90;;;;;;5053872;28;20040;-75
2023/04/23 01:32:37;;;;;;;34.83;22.60;;;8.70;99.90;;;;;;5036635;28;20036;-75
2023/04/23 01:35:03;;;;;;;32.45;21.85;;;8.70;99.90;;;;;;5050911;28;20072;-75
2023/04/23 01:37:30;;;;;;;35.00;23.65;;;8.70;99.90;;;;;;5052295;28;20098;-75
2023/04/23 01:39:56;;;;;;;35.65;22.10;;;8.60;99.90;;;;;;5060739;28;20036;-75
2023/04/23 01:42:22;;;;;;;37.38;23.73;;;8.60;99.90;;;;;;5053984;28;20032;-75
2023/04/23 01:44:48;;;;;;;36.53;24.80;;;8.50;99.90;;;;;;5049347;28;20072;-75
2023/04/23 01:47:16;;;;;;;34.90;22.58;;;8.60;99.90;;;;;;5051406;28;20604;-75
2023/04/23 01:49:41;;;;;;;35.25;23.52;;;8.50;99.90;;;;;;5054263;28;20045;-75
2023/04/23 01:52:07;;;;;;;34.20;22.65;;;8.50;99.90;;;;;;5053345;28;20056;-75
2023/04/23 01:54:33;;;;;;;38.00;24.13;;;8.50;99.90;;;;;;5050125;28;20051;-75
2023/04/23 01:56:59;;;;;;;37.10;23.85;;;8.50;99.90;;;;;;5051330;28;20079;-75
2023/04/23 01:59:25;;;;;;;36.65;24.30;;;8.50;99.90;;;;;;5052950;28;20051;-75
2023/04/23 02:01:51;;;;;;;36.72;23.80;;;8.40;99.90;;;;;;5061386;28;20040;-75
2023/04/23 02:04:17;;;;;;;37.25;24.48;;;8.40;99.90;;;;;;5051317;28;20045;-74
2023/04/23 02:06:46;;;;;;;35.80;23.67;;;8.40;99.90;;;;;;5054414;28;20386;-75
2023/04/23 02:09:12;;;;;;;39.15;24.02;;;9.50;99.90;;;;;;5067324;28;20390;-75
2023/04/23 02:11:38;;;;;;;36.20;23.25;;;8.40;99.90;;;;;;5079483;28;20040;-75
2023/04/23 02:14:05;;;;;;;38.20;24.58;;;8.30;99.90;;;;;;5051665;28;20044;-75
2023/04/23 02:16:31;;;;;;;37.05;23.92;;;8.30;99.90;;;;;;5048370;28;20101;-75
2023/04/23 02:18:57;;;;;;;36.25;24.58;;;8.30;99.90;;;;;;5046813;28;20048;-75
2023/04/23 02:21:23;;;;;;;41.83;26.13;;;8.30;99.90;;;;;;5030886;28;20052;-75
2023/04/23 02:23:49;;;;;;;37.55;23.88;;;8.20;99.90;;;;;;5045877;28;20045;-75
2023/04/23 02:26:15;;;;;;;41.75;26.25;;;8.20;99.90;;;;;;5051910;28;20482;-75
2023/04/23 02:28:41;;;;;;;41.03;26.60;;;8.20;99.90;;;;;;5051474;28;20068;-75
2023/04/23 02:31:07;;;;;;;39.45;25.08;;;8.20;99.90;;;;;;5049578;28;20056;-75
2023/04/23 02:33:33;;;;;;;43.65;26.55;;;8.20;99.90;;;;;;5059822;28;20040;-74
2023/04/23 02:35:58;;;;;;;43.58;26.98;;;8.10;99.90;;;;;;5034847;28;20383;-75
2023/04/23 02:38:24;;;;;;;39.45;25.48;;;8.10;99.90;;;;;;5031172;28;20041;-75
2023/04/23 02:40:50;;;;;;;43.35;27.70;;;8.10;99.90;;;;;;5050908;28;20123;-75
2023/04/23 02:43:17;;;;;;;43.05;26.92;;;8.00;99.90;;;;;;5038011;28;20040;-75
2023/04/23 02:45:43;;;;;;;44.67;27.25;;;8.00;99.90;;;;;;5051729;28;20403;-75
2023/04/23 02:48:10;;;;;;;42.33;26.63;;;8.00;99.90;;;;;;5045378;28;20049;-75
2023/04/23 02:50:38;;;;;;;45.78;27.73;;;8.00;99.90;;;;;;5037048;28;20057;-75
2023/04/23 02:53:04;;;;;;;42.20;26.88;;;7.90;99.90;;;;;;5031439;28;20071;-75
2023/04/23 02:55:30;;;;;;;44.47;27.27;;;7.90;99.90;;;;;;5028696;28;20050;-74
2023/04/23 02:57:57;;;;;;;44.00;27.10;;;7.90;99.90;;;;;;5047857;28;20040;-74
2023/04/23 03:00:24;;;;;;;45.97;26.88;;;7.80;99.90;;;;;;5030904;28;20040;-75
2023/04/23 03:02:50;;;;;;;54.65;29.20;;;8.40;99.90;;;;;;5045060;28;20573;-74
2023/04/23 03:05:16;;;;;;;47.75;29.27;;;9.30;99.90;;;;;;5046185;28;20140;-74
2023/04/23 03:07:41;;;;;;;49.03;28.83;;;7.80;99.90;;;;;;5047420;28;20044;-75
2023/04/23 03:10:07;;;;;;;51.15;30.35;;;7.70;99.90;;;;;;5045082;28;20522;-75
2023/04/23 03:12:33;;;;;;;51.67;31.30;;;7.80;99.90;;;;;;5045526;28;20045;-74
2023/04/23 03:14:59;;;;;;;47.80;29.65;;;7.70;99.90;;;;;;5030408;28;20132;-75
2023/04/23 03:17:25;;;;;;;47.85;29.13;;;8.00;99.90;;;;;;5047742;28;20128;-75
2023/04/23 03:19:51;;;;;;;49.30;30.88;;;8.60;99.90;;;;;;5046988;28;20234;-75
2023/04/23 03:22:16;;;;;;;48.17;28.67;;;7.70;99.90;;;;;;5042496;28;20040;-74
2023/04/23 03:24:42;;;;;;;48.03;29.55;;;7.70;99.90;;;;;;5029523;28;20435;-75
2023/04/23 03:27:08;;;;;;;44.22;28.08;;;7.70;99.90;;;;;;5049772;28;20555;-75
2023/04/23 03:29:34;;;;;;;42.88;26.95;;;7.60;99.90;;;;;;5046067;28;20126;-75
2023/04/23 03:32:00;;;;;;;48.67;29.00;;;7.60;99.90;;;;;;5047649;28;20429;-75
2023/04/23 03:34:26;;;;;;;47.53;28.33;;;7.60;99.90;;;;;;5047087;28;20139;-74
2023/04/23 03:36:52;;;;;;;47.78;27.80;;;7.50;99.90;;;;;;5047389;28;20052;-74
2023/04/23 03:39:17;;;;;;;52.95;30.95;;;7.50;99.90;;;;;;5048029;28;20387;-74
2023/04/23 03:41:43;;;;;;;47.00;29.23;;;7.80;99.90;;;;;;5045890;28;20045;-74
2023/04/23 03:44:09;;;;;;;51.13;28.90;;;7.50;99.90;;;;;;5045290;28;20132;-74
2023/04/23 03:46:35;;;;;;;50.30;30.02;;;7.40;99.90;;;;;;5047165;28;20052;-74
2023/04/23 03:49:00;;;;;;;52.78;31.20;;;7.40;99.90;;;;;;5040605;28;20057;-74
2023/04/23 03:51:27;;;;;;;49.67;31.00;;;7.40;99.90;;;;;;5013083;28;20064;-74
2023/04/23 03:53:52;;;;;;;50.33;30.95;;;7.30;99.90;;;;;;5026224;28;20122;-74
2023/04/23 03:56:18;;;;;;;49.15;30.08;;;7.50;99.90;;;;;;5027278;28;20507;-74
2023/04/23 03:58:44;;;;;;;55.60;31.10;;;7.80;99.90;;;;;;5010262;28;22887;-74
2023/04/23 04:01:09;;;;;;;49.53;30.05;;;7.30;99.90;;;;;;5028380;28;20041;-74
2023/04/23 04:03:35;;;;;;;51.55;31.70;;;7.80;99.90;;;;;;5010864;28;20038;-74
2023/04/23 04:06:01;;;;;;;54.28;31.73;;;7.30;99.90;;;;;;5031430;28;20519;-74
2023/04/23 04:08:28;;;;;;;52.00;30.92;;;7.30;99.90;;;;;;5027075;28;20139;-74
2023/04/23 04:10:54;;;;;;;50.38;32.25;;;7.30;99.90;;;;;;5027110;28;20388;-74
2023/04/23 04:13:20;;;;;;;57.50;32.47;;;7.30;99.90;;;;;;5026986;28;20053;-74
2023/04/23 04:15:46;;;;;;;56.42;33.35;;;7.40;99.90;;;;;;5029475;28;20038;-74
2023/04/23 04:18:12;;;;;;;49.97;31.05;;;7.40;99.90;;;;;;5025881;28;20049;-74
2023/04/23 04:20:38;;;;;;;54.60;32.88;;;7.40;99.90;;;;;;5025166;28;20042;-74
2023/04/23 04:23:03;;;;;;;62.03;35.30;;;7.40;99.90;;;;;;5028233;28;20052;-74
2023/04/23 04:25:29;;;;;;;62.58;35.20;;;7.40;99.90;;;;;;5029622;28;20041;-74
2023/04/23 04:27:56;;;;;;;57.40;33.03;;;7.60;99.90;;;;;;5026828;28;20033;-74
2023/04/23 04:30:23;;;;;;;56.13;33.58;;;7.50;99.90;;;;;;5027974;28;20060;-74
2023/04/23 04:32:50;;;;;;;53.47;32.28;;;7.70;99.90;;;;;;5030125;28;20494;-74
2023/04/23 04:35:16;;;;;;;56.55;35.17;;;7.50;99.90;;;;;;5029792;28;20052;-74
2023/04/23 04:37:43;;;;;;;58.35;33.75;;;7.50;99.90;;;;;;5027361;28;20042;-74
2023/04/23 04:40:10;;;;;;;59.42;35.38;;;7.50;99.90;;;;;;5037463;28;20092;-75
2023/04/23 04:42:37;;;;;;;58.97;35.33;;;7.50;99.90;;;;;;5030829;28;20052;-74
2023/04/23 04:45:04;;;;;;;63.83;35.60;;;7.50;99.90;;;;;;5027375;28;20044;-74
2023/04/23 04:47:31;;;;;;;60.20;34.53;;;7.50;99.90;;;;;;5031818;28;20589;-76
2023/04/23 04:49:56;;;;;;;57.92;34.45;;;7.60;99.90;;;;;;5029694;28;20045;-75
2023/04/23 04:52:23;;;;;;;59.85;33.67;;;7.60;99.90;;;;;;5029615;28;20045;-75
2023/04/23 04:54:49;;;;;;;63.65;36.22;;;7.70;99.90;;;;;;5012690;28;20050;-75
2023/04/23 04:57:15;;;;;;;60.75;36.53;;;7.70;99.90;;;;;;5029975;28;20052;-75
2023/04/23 04:59:40;;;;;;;65.18;37.08;;;7.70;99.90;;;;;;4993481;28;20132;-75
2023/04/23 05:02:06;;;;;;;72.10;39.80;;;7.80;99.90;;;;;;5011359;28;20038;-75
2023/04/23 05:04:32;;;;;;;80.40;41.13;;;7.80;99.90;;;;;;5030264;28;20053;-75
2023/04/23 05:06:58;;;;;;;65.32;39.03;;;7.80;99.90;;;;;;5031307;28;20045;-75
2023/04/23 05:09:24;;;;;;;73.50;39.97;;;7.90;99.90;;;;;;5026017;28;20499;-75
2023/04/23 05:11:50;;;;;;;72.68;40.22;;;7.90;99.90;;;;;;5030155;28;20493;-75
2023/04/23 05:14:16;;;;;;;74.07;40.67;;;7.90;99.90;;;;;;5028410;28;20057;-76
2023/04/23 05:16:42;;;;;;;75.28;41.35;;;7.90;99.90;;;;;;5030243;28;20077;-76
2023/04/23 05:19:07;;;;;;;75.35;41.45;;;8.00;99.90;;;;;;5028484;28;20111;-75
2023/04/23 05:21:33;;;;;;;84.93;41.08;;;8.00;99.90;;;;;;5010288;28;20042;-75
2023/04/23 05:23:59;;;;;;;73.22;39.60;;;8.00;99.90;;;;;;5013311;28;20057;-75
2023/04/23 05:26:25;;;;;;;71.28;40.58;;;8.00;99.90;;;;;;5029490;28;20691;-74
2023/04/23 05:28:50;;;;;;;66.85;37.85;;;8.00;99.90;;;;;;5029774;28;20050;-74
2023/04/23 05:31:16;;;;;;;64.78;38.85;;;8.10;99.90;;;;;;5030643;28;20045;-74
2023/04/23 05:33:43;;;;;;;66.35;38.17;;;8.10;99.90;;;;;;5029195;28;20084;-75
2023/04/23 05:36:09;;;;;;;75.95;41.95;;;8.10;99.90;;;;;;5026949;28;20085;-75
2023/04/23 05:38:35;;;;;;;73.00;42.08;;;8.10;99.90;;;;;;5028827;28;20527;-75
2023/04/23 05:41:01;;;;;;;68.00;42.03;;;8.10;99.90;;;;;;5032931;28;20060;-75
2023/04/23 05:43:27;;;;;;;73.15;41.83;;;8.20;99.90;;;;;;5030711;28;20128;-74
2023/04/23 05:45:52;;;;;;;73.03;43.45;;;8.20;99.90;;;;;;5027606;28;20114;-75
2023/04/23 05:48:18;;;;;;;85.95;44.92;;;8.20;99.90;;;;;;5038305;28;20064;-75
2023/04/23 05:50:44;;;;;;;73.82;43.60;;;8.30;99.90;;;;;;5043162;28;20133;-75
2023/04/23 05:53:10;;;;;;;89.18;47.85;;;8.30;99.90;;;;;;5035740;28;20040;-75
2023/04/23 05:55:36;;;;;;;75.63;43.97;;;8.30;99.90;;;;;;5046518;28;20080;-75
2023/04/23 05:58:01;;;;;;;89.45;46.40;;;8.40;99.90;;;;;;5046603;28;20106;-74
2023/04/23 06:00:27;;;;;;;83.93;45.50;;;8.40;99.90;;;;;;5043204;28;20118;-74
2023/04/23 06:02:53;;;;;;;88.78;47.92;;;8.40;99.90;;;;;;5039261;28;20043;-75
2023/04/23 06:05:19;;;;;;;90.35;46.55;;;8.50;99.90;;;;;;5051591;28;20037;-74
2023/04/23 06:07:45;;;;;;;91.43;48.13;;;8.60;99.90;;;;;;5048800;28;20414;-74
2023/04/23 06:10:11;;;;;;;84.32;47.42;;;8.60;99.90;;;;;;5047533;28;20080;-74
2023/04/23 06:12:38;;;;;;;85.63;47.10;;;8.70;99.90;;;;;;5043479;28;20174;-74
2023/04/23 06:15:08;;;;;;;94.53;49.22;;;8.70;99.90;;;;;;5047276;28;20192;-74
2023/04/23 06:17:35;;;;;;;94.30;47.95;;;8.80;99.90;;;;;;5046814;28;20126;-75
2023/04/23 06:20:01;;;;;;;100.30;49.65;;;8.80;99.90;;;;;;5047094;28;20052;-75
2023/04/23 06:22:27;;;;;;;86.10;48.92;;;8.90;99.90;;;;;;5041880;28;20072;-74
2023/04/23 06:24:53;;;;;;;89.65;47.90;;;9.00;99.90;;;;;;5039688;28;20114;-75
2023/04/23 06:27:18;;;;;;;86.57;47.58;;;9.10;99.90;;;;;;5043972;28;20043;-75
2023/04/23 06:29:44;;;;;;;88.32;49.72;;;9.20;99.90;;;;;;5041710;28;20076;-74
2023/04/23 06:32:10;;;;;;;84.35;45.90;;;9.20;99.90;;;;;;5046694;28;20040;-74
2023/04/23 06:34:36;;;;;;;85.32;47.17;;;9.30;99.90;;;;;;5039624;28;20585;-74
2023/04/23 06:37:01;;;;;;;86.53;46.75;;;9.40;99.90;;;;;;5049638;28;20041;-74
2023/04/23 06:39:27;;;;;;;82.07;46.40;;;9.50;99.90;;;;;;5042284;28;20387;-73
2023/04/23 06:41:53;;;;;;;75.25;45.40;;;9.70;99.90;;;;;;5042774;28;20052;-74
2023/04/23 06:44:19;;;;;;;76.28;46.22;;;9.80;99.90;;;;;;5025302;28;20041;-74
2023/04/23 06:46:45;;;;;;;80.00;46.83;;;10.00;99.90;;;;;;5045941;28;20033;-75
2023/04/23 06:49:11;;;;;;;69.32;43.20;;;10.10;99.90;;;;;;5045548;28;20426;-74
2023/04/23 06:51:36;;;;;;;68.65;43.22;;;10.20;99.90;;;;;;5041486;28;20044;-74
2023/04/23 06:54:02;;;;;;;66.43;40.90;;;10.30;99.90;;;;;;5047717;28;20076;-74
2023/04/23 06:56:28;;;;;;;64.32;40.55;;;10.50;99.90;;;;;;5032771;28;20146;-75
2023/04/23 06:58:54;;;;;;;68.05;40.00;;;10.60;99.90;;;;;;5047710;28;20068;-75
2023/04/23 07:01:19;;;;;;;63.25;40.72;;;10.70;99.90;;;;;;5030613;28;20139;-74
2023/04/23 07:03:47;;;;;;;69.05;41.45;;;10.80;99.90;;;;;;5035522;28;20040;-75
2023/04/23 07:06:15;;;;;;;58.17;38.42;;;10.80;99.90;;;;;;5052635;28;20047;-76
2023/04/23 07:08:42;;;;;;;61.17;38.50;;;10.90;99.90;;;;;;5049463;28;20124;-75
2023/04/23 07:11:09;;;;;;;55.30;36.45;;;11.20;99.90;;;;;;5046212;28;20244;-74
2023/04/23 07:13:44;;;;;;;57.28;37.40;;;11.10;99.90;;;;;;5136676;27;20402;-75
2023/04/23 07:16:09;;;;;;;59.97;38.10;;;11.30;99.90;;;;;;5092183;28;20049;-75
2023/04/23 07:18:35;;;;;;;54.30;35.42;;;11.40;99.90;;;;;;5082248;28;20154;-75
2023/04/23 07:21:01;;;;;;;55.03;36.78;;;11.50;99.90;;;;;;5098584;28;20024;-74
2023/04/23 07:23:27;;;;;;;54.40;36.85;;;11.50;99.90;;;;;;5097181;28;20036;-74
2023/04/23 07:25:52;;;;;;;52.63;35.08;;;11.60;99.90;;;;;;5115531;28;20115;-74
2023/04/23 07:28:18;;;;;;;54.22;36.08;;;11.60;99.90;;;;;;5095903;28;20607;-74
2023/04/23 07:30:44;;;;;;;52.20;35.67;;;11.70;99.90;;;;;;5089247;28;20047;-74
2023/04/23 07:33:10;;;;;;;51.25;35.25;;;11.70;99.90;;;;;;5076399;28;20302;-74
2023/04/23 07:35:35;;;;;;;53.15;36.58;;;11.90;99.90;;;;;;5071764;28;20055;-76
2023/04/23 07:38:01;;;;;;;49.72;33.58;;;12.00;99.90;;;;;;5074882;28;20054;-75
2023/04/23 07:40:27;;;;;;;50.38;35.45;;;12.10;99.90;;;;;;5119627;28;20031;-75
2023/04/23 07:42:52;;;;;;;48.20;33.42;;;12.30;99.90;;;;;;5087580;28;20289;-75
2023/04/23 07:45:19;;;;;;;46.97;32.97;;;12.30;99.90;;;;;;5084442;28;20039;-76
2023/04/23 07:47:47;;;;;;;47.05;33.17;;;12.30;99.90;;;;;;5095981;28;20408;-75
2023/04/23 07:50:13;;;;;;;44.80;31.23;;;12.30;99.90;;;;;;5104169;28;20398;-76
2023/04/23 07:52:39;;;;;;;45.03;31.20;;;12.30;99.90;;;;;;5089808;28;20463;-75
2023/04/23 07:55:05;;;;;;;45.45;30.80;;;12.50;99.90;;;;;;5091396;28;20096;-75
2023/04/23 07:57:31;;;;;;;42.50;29.98;;;12.70;99.90;;;;;;5071322;28;20464;-75
2023/04/23 07:59:57;;;;;;;43.88;30.85;;;12.80;99.90;;;;;;5092077;28;20071;-76
2023/04/23 08:02:25;;;;;;;38.22;27.63;;;13.00;99.90;;;;;;5070813;28;20139;-75
2023/04/23 08:04:51;;;;;;;37.25;27.15;;;13.10;99.90;;;;;;5074524;28;20039;-75
2023/04/23 08:07:17;;;;;;;38.28;27.10;;;13.20;99.90;;;;;;5092726;28;20071;-75
2023/04/23 08:09:43;;;;;;;38.42;26.42;;;13.40;99.90;;;;;;5097369;28;20071;-75
2023/04/23 08:12:09;;;;;;;37.58;26.60;;;13.40;99.90;;;;;;5100898;28;20277;-75
2023/04/23 08:14:34;;;;;;;36.03;25.92;;;13.30;99.90;;;;;;5091061;28;20473;-73
2023/04/23 08:17:00;;;;;;;33.20;25.23;;;13.10;99.90;;;;;;5081963;28;20044;-76
2023/04/23 08:19:30;;;;;;;36.33;25.85;;;13.20;99.90;;;;;;5062723;28;20031;-75
2023/04/23 08:21:56;;;;;;;37.90;27.45;;;13.30;99.90;;;;;;5101283;28;20039;-76
2023/04/23 08:24:22;;;;;;;36.67;25.80;;;13.40;99.90;;;;;;5078013;28;20047;-76
2023/04/23 08:26:47;;;;;;;34.13;25.17;;;13.60;99.90;;;;;;5082814;28;20488;-76
2023/04/23 08:29:13;;;;;;;37.20;25.75;;;13.70;99.90;;;;;;5080573;28;20052;-75
2023/04/23 08:31:39;;;;;;;35.05;24.90;;;13.80;99.90;;;;;;5079648;28;20243;-75
2023/04/23 08:34:05;;;;;;;33.17;25.05;;;13.90;99.90;;;;;;5056410;28;20079;-75
2023/04/23 08:36:30;;;;;;;33.30;25.20;;;14.00;99.90;;;;;;5069532;28;20516;-75
2023/04/23 08:38:56;;;;;;;34.17;23.88;;;14.10;99.90;;;;;;5053691;28;20509;-75
2023/04/23 08:41:26;;;;;;;33.40;24.00;;;14.30;99.90;;;;;;5055976;28;20031;-75
2023/04/23 08:44:12;;;;;;;33.13;23.67;;;14.50;99.90;;;;;;5070786;28;20603;-76
2023/04/23 08:46:42;;;;;;;32.60;22.65;;;14.60;99.90;;;;;;5082386;28;20074;-76
2023/04/23 08:49:16;;;;;;;32.25;22.05;;;14.50;99.90;;;;;;5090868;28;20046;-76
2023/04/23 08:52:16;;;;;;;29.90;21.70;;;14.50;99.90;;;;;;5065963;28;20104;-76
2023/04/23 08:54:51;;;;;;;28.23;21.08;;;14.50;99.90;;;;;;5085808;28;20042;-76
2023/04/23 08:57:17;;;;;;;27.08;19.83;;;14.50;99.90;;;;;;5068160;28;20032;-76
2023/04/23 08:59:44;;;;;;;27.77;20.50;;;14.70;99.90;;;;;;5064775;28;20028;-76
2023/04/23 09:02:20;;;;;;;26.85;19.08;;;14.70;99.90;;;;;;5062405;28;20123;-76
2023/04/23 09:04:47;;;;;;;27.00;20.17;;;14.80;99.90;;;;;;5066542;28;20062;-76
2023/04/23 09:07:14;;;;;;;27.70;19.48;;;14.90;99.90;;;;;;5068066;28;20043;-76
2023/04/23 09:09:40;;;;;;;27.27;19.77;;;14.90;99.90;;;;;;5084091;28;20127;-76
2023/04/23 09:12:07;;;;;;;26.17;18.80;;;15.00;99.90;;;;;;5089625;28;20090;-76
2023/04/23 09:14:36;;;;;;;25.25;17.92;;;15.00;99.90;;;;;;5060988;28;20036;-76
2023/04/23 09:17:02;;;;;;;25.05;17.30;;;15.10;99.90;;;;;;5075064;28;20093;-76
2023/04/23 09:19:29;;;;;;;27.10;17.85;;;15.20;99.90;;;;;;5086491;28;20040;-75
2023/04/23 09:21:56;;;;;;;26.10;18.00;;;15.30;99.90;;;;;;5082048;28;20040;-76
2023/04/23 09:24:23;;;;;;;24.13;16.73;;;15.40;99.90;;;;;;5078349;28;20071;-76
2023/04/23 09:26:50;;;;;;;24.15;17.13;;;15.50;99.90;;;;;;5063788;28;20078;-76
2023/04/23 09:29:23;;;;;;;22.33;16.02;;;15.50;99.90;;;;;;5082318;28;20513;-76
2023/04/23 09:31:51;;;;;;;22.55;14.52;;;15.70;99.90;;;;;;5076572;28;20409;-76
2023/04/23 09:34:22;;;;;;;23.00;14.23;;;15.70;99.90;;;;;;5078799;28;20031;-74
2023/04/23 09:36:49;;;;;;;21.70;14.82;;;15.80;99.90;;;;;;5075074;28;20060;-75
2023/04/23 09:39:17;;;;;;;21.15;14.85;;;16.00;99.90;;;;;;5074495;28;20115;-74
2023/04/23 09:41:46;;;;;;;20.27;13.27;;;16.10;99.90;;;;;;5052004;28;20036;-75
2023/04/23 09:44:25;;;;;;;21.08;13.90;;;15.90;99.90;;;;;;5076231;28;20036;-75
2023/04/23 09:46:50;;;;;;;17.77;12.02;;;16.10;99.90;;;;;;5071306;28;20060;-75
2023/04/23 09:49:16;;;;;;;19.10;11.90;;;16.20;99.90;;;;;;5083107;28;20039;-75
2023/04/23 09:51:45;;;;;;;19.10;12.15;;;16.20;99.90;;;;;;5081286;28;20036;-75
2023/04/23 09:54:23;;;;;;;18.85;11.40;;;16.30;99.90;;;;;;5078558;28;20032;-74
2023/04/23 09:56:50;;;;;;;18.55;11.23;;;16.20;99.90;;;;;;5088583;28;20035;-74
2023/04/23 09:59:24;;;;;;;18.25;10.43;;;16.10;99.90;;;;;;5087046;28;20073;-74
2023/04/23 10:01:51;;;;;;;15.45;9.40;;;16.00;99.90;;;;;;5092064;28;20043;-74
2023/04/23 10:04:24;;;;;;;16.58;10.77;;;16.20;99.90;;;;;;5073779;28;20043;-74
2023/04/23 10:07:01;;;;;;;15.25;9.57;;;16.40;99.90;;;;;;5066819;28;20042;-74
2023/04/23 10:09:28;;;;;;;17.88;9.90;;;16.60;99.90;;;;;;5087160;28;20127;-74
2023/04/23 10:11:56;;;;;;;16.35;9.57;;;16.90;99.90;;;;;;5081196;28;20142;-74
2023/04/23 10:14:22;;;;;;;15.52;9.35;;;17.10;99.90;;;;;;5087474;28;20055;-74
2023/04/23 10:16:56;;;;;;;13.88;7.65;;;17.10;99.90;;;;;;5070476;28;20880;-74
2023/04/23 10:19:23;;;;;;;14.57;7.85;;;17.00;99.90;;;;;;5046412;28;20152;-75
2023/04/23 10:21:59;;;;;;;14.20;7.63;;;16.80;99.90;;;;;;5092726;28;20066;-74
2023/04/23 10:24:29;;;;;;;13.27;6.43;;;16.80;99.90;;;;;;5091794;28;20035;-74
2023/04/23 10:27:03;;;;;;;14.48;7.32;;;16.60;99.90;;;;;;5063523;28;20492;-74
2023/04/23 10:29:31;;;;;;;13.73;6.65;;;16.50;99.90;;;;;;5088085;28;20036;-75
2023/04/23 10:32:02;;;;;;;13.23;6.88;;;16.70;99.90;;;;;;5071366;28;20047;-74
2023/04/23 10:34:30;;;;;;;13.25;6.32;;;16.60;99.90;;;;;;5057122;28;20421;-74
2023/04/23 10:36:58;;;;;;;13.30;5.95;;;16.60;99.90;;;;;;5054893;28;20291;-74
2023/04/23 10:39:27;;;;;;;12.38;5.25;;;16.60;99.90;;;;;;5085612;28;20126;-74
2023/04/23 10:41:54;;;;;;;12.25;5.38;;;16.60;99.90;;;;;;5081380;28;20043;-74
2023/04/23 10:44:23;;;;;;;12.98;4.85;;;16.60;99.90;;;;;;5098633;28;20485;-74
2023/04/23 10:46:57;;;;;;;13.23;4.35;;;16.50;99.90;;;;;;5091787;28;20039;-75
2023/04/23 10:49:30;;;;;;;12.50;4.80;;;16.40;99.90;;;;;;5093445;28;20051;-74
2023/04/23 10:52:22;;;;;;;;;;;16.40;99.90;;;;;;5087222;28;20046;-74
2023/04/23 10:54:49;;;;;;;13.05;4.97;;;16.60;99.90;;;;;;5103634;28;19977;-75
2023/04/23 10:57:15;;;;;;;12.20;5.28;;;16.60;99.90;;;;;;5074856;28;20050;-74
2023/04/23 10:59:52;;;;;;;13.45;5.95;;;16.70;99.90;;;;;;5070471;28;20038;-74
2023/04/23 11:02:18;;;;;;;12.00;5.20;;;17.10;99.90;;;;;;5085212;28;20067;-74
2023/04/23 11:04:45;;;;;;;13.40;5.60;;;17.10;99.90;;;;;;5087938;28;20043;-74
2023/04/23 11:07:12;;;;;;;13.77;5.25;;;17.10;99.90;;;;;;5072554;28;20405;-74
2023/04/23 11:09:41;;;;;;;11.15;4.90;;;17.10;99.90;;;;;;5083186;28;20075;-74
2023/04/23 11:12:23;;;;;;;12.30;4.45;;;17.00;99.90;;;;;;5066747;28;20531;-74
2023/04/23 11:14:50;;;;;;;10.77;4.13;;;17.00;99.90;;;;;;5089149;28;20043;-75
2023/04/23 11:17:20;;;;;;;12.82;4.43;;;17.10;99.90;;;;;;5074311;28;20085;-75
2023/04/23 11:20:09;;;;;;;12.57;4.30;;;17.20;99.90;;;;;;5085585;28;20089;-75
2023/04/23 11:22:42;;;;;;;12.38;4.70;;;17.10;99.90;;;;;;5055956;28;20088;-75
2023/04/23 11:25:13;;;;;;;11.15;4.25;;;17.00;99.90;;;;;;5087487;28;20059;-75
2023/04/23 11:27:40;;;;;;;12.73;3.97;;;16.90;99.90;;;;;;5074080;28;20032;-75
2023/04/23 11:30:14;;;;;;;11.68;3.90;;;16.90;99.90;;;;;;5073338;28;20131;-75
2023/04/23 11:32:51;;;;;;;10.48;3.90;;;17.20;99.90;;;;;;5070853;28;20040;-75
2023/04/23 11:35:18;;;;;;;11.20;3.58;;;17.40;99.90;;;;;;5067116;28;20072;-75
2023/04/23 11:37:47;;;;;;;11.40;3.80;;;17.40;99.90;;;;;;5091172;28;20222;-74
2023/04/23 11:40:19;;;;;;;10.07;3.78;;;17.40;99.90;;;;;;5082077;28;20047;-75
2023/04/23 11:42:48;;;;;;;11.98;4.20;;;17.30;99.90;;;;;;5070187;28;20116;-75
2023/04/23 11:45:19;;;;;;;9.52;3.70;;;17.60;99.90;;;;;;5084170;28;20118;-75
2023/04/23 11:47:46;;;;;;;9.98;3.38;;;17.70;99.90;;;;;;5084507;28;20163;-75
2023/04/23 11:50:19;;;;;;;10.40;3.67;;;17.80;99.90;;;;;;5060022;28;20047;-75
2023/04/23 11:52:45;;;;;;;9.82;3.55;;;17.90;99.90;;;;;;5056343;28;20069;-75
2023/04/23 11:55:12;;;;;;;10.85;3.10;;;17.80;99.90;;;;;;5078869;28;20036;-75
2023/04/23 11:57:42;;;;;;;8.75;3.00;;;17.70;99.90;;;;;;5057631;28;20036;-75
2023/04/23 12:00:15;;;;;;;8.85;2.95;;;17.50;99.90;;;;;;5081471;28;20127;-74
2023/04/23 12:03:00;;;;;;;9.25;2.97;;;17.40;99.90;;;;;;5077654;28;20437;-75
2023/04/23 12:05:27;;;;;;;9.85;3.03;;;17.40;99.90;;;;;;5076506;28;20299;-75
2023/04/23 12:07:53;;;;;;;8.68;2.88;;;17.50;99.90;;;;;;5077214;28;20468;-75
2023/04/23 12:10:20;;;;;;;8.95;2.95;;;17.70;99.90;;;;;;5078121;28;20040;-75
2023/04/23 12:12:53;;;;;;;9.45;2.60;;;17.80;99.90;;;;;;5074110;28;20546;-75
2023/04/23 12:15:19;;;;;;;9.73;2.65;;;17.80;99.90;;;;;;5042106;28;20052;-75
2023/04/23 12:18:07;;;;;;;9.57;2.38;;;17.90;99.90;;;;;;5085775;28;20485;-75
2023/04/23 12:20:34;;;;;;;8.20;2.53;;;18.10;99.90;;;;;;5083936;28;20039;-75
2023/04/23 12:23:05;;;;;;;9.98;2.80;;;18.30;99.90;;;;;;5042896;28;20517;-75
2023/04/23 12:25:32;;;;;;;8.48;2.28;;;18.50;99.90;;;;;;5064106;28;20048;-75
2023/04/23 12:28:05;;;;;;;7.28;2.30;;;18.60;99.90;;;;;;5067905;28;20044;-75
2023/04/23 12:30:32;;;;;;;8.93;2.33;;;18.50;99.90;;;;;;5079947;28;20040;-75
2023/04/23 12:33:03;;;;;;;9.52;2.40;;;18.20;99.90;;;;;;5053241;28;20028;-74
2023/04/23 12:35:39;;;;;;;9.35;2.53;;;18.10;99.90;;;;;;5075851;28;20123;-74
2023/04/23 12:38:05;;;;;;;8.48;2.05;;;18.20;99.90;;;;;;5077489;28;20043;-74